Terminal Aerodrome Forecast
Issued by NWS

Home | Current Version | Previous Version | Text Only | Print | Product List | Glossary On
Versions: 1 2 3 4 5 6 7 8 9 10 11 12
000
FTUS44 KCRP 052320
TAFLRD
TAF
KLRD 052320Z 0600/0624 15015G25KT P6SM SCT035
     FM060300 12011KT P6SM SKC
     FM061100 15011KT P6SM SCT015
     FM061400 16015G22KT P6SM SCT035=

USA.gov is the U.S. government's official web portal to all federal, state and local government web resources and services.